createdAt,value
2022-08-21T00:00:18.956Z,19.10
2022-08-21T00:01:28.387Z,19.10
2022-08-21T00:02:30.420Z,19.10
2022-08-21T00:03:32.424Z,19.00
2022-08-21T00:04:34.164Z,19.00
2022-08-21T00:05:41.117Z,19.00
2022-08-21T00:06:42.829Z,19.00
2022-08-21T00:07:44.599Z,19.00
2022-08-21T00:08:46.422Z,19.00
2022-08-21T00:09:48.844Z,19.00
2022-08-21T00:10:51.351Z,19.00
2022-08-21T00:11:53.099Z,19.00
2022-08-21T00:12:55.479Z,19.00
2022-08-21T00:13:57.396Z,19.00
2022-08-21T00:15:00.445Z,19.00
2022-08-21T00:16:02.638Z,19.00
2022-08-21T00:17:05.097Z,19.00
2022-08-21T00:18:08.936Z,19.00
2022-08-21T00:19:10.836Z,19.00
2022-08-21T00:20:17.568Z,18.90
2022-08-21T00:21:19.365Z,18.90
2022-08-21T00:22:21.256Z,18.90
2022-08-21T00:23:23.489Z,18.90
2022-08-21T00:24:26.432Z,18.90
2022-08-21T00:25:28.524Z,18.90
2022-08-21T00:26:30.206Z,18.90
2022-08-21T00:27:32.062Z,18.90
2022-08-21T00:28:34.427Z,18.90
2022-08-21T00:29:36.460Z,18.90
2022-08-21T00:30:39.272Z,18.90
2022-08-21T00:31:42.521Z,18.90
2022-08-21T00:32:44.880Z,18.80
2022-08-21T00:33:46.667Z,18.80
2022-08-21T00:34:48.784Z,18.80
2022-08-21T00:35:51.040Z,18.80
2022-08-21T00:36:52.870Z,18.80
2022-08-21T00:37:54.731Z,18.70
2022-08-21T00:38:57.739Z,18.70
2022-08-21T00:39:59.631Z,18.70
2022-08-21T00:41:20.936Z,18.70
2022-08-21T00:42:29.840Z,18.70
2022-08-21T00:43:34.860Z,18.60
2022-08-21T00:44:36.946Z,18.60
2022-08-21T00:45:39.461Z,18.60
2022-08-21T00:46:42.922Z,18.60
2022-08-21T00:47:44.850Z,18.60
2022-08-21T00:48:46.704Z,18.60
2022-08-21T00:49:48.583Z,18.60
2022-08-21T00:50:56.373Z,18.60
2022-08-21T00:52:01.273Z,18.60
2022-08-21T00:53:05.594Z,18.60
2022-08-21T00:54:12.959Z,18.50
2022-08-21T00:55:23.561Z,18.50
2022-08-21T00:56:26.890Z,18.50
2022-08-21T00:57:37.591Z,18.50
2022-08-21T00:58:44.156Z,18.50
2022-08-21T00:59:50.497Z,18.50
2022-08-21T01:00:52.902Z,18.40
2022-08-21T01:01:54.948Z,18.40
2022-08-21T01:02:59.235Z,18.40
2022-08-21T01:04:01.296Z,18.40
2022-08-21T01:05:03.759Z,18.40
2022-08-21T01:06:06.647Z,18.40
2022-08-21T01:07:09.287Z,18.40
2022-08-21T01:08:12.101Z,18.30
2022-08-21T01:09:15.363Z,18.30
2022-08-21T01:10:24.078Z,18.30
2022-08-21T01:11:26.792Z,18.30
2022-08-21T01:12:28.574Z,18.30
2022-08-21T01:13:36.289Z,18.30
2022-08-21T01:14:38.744Z,18.30
2022-08-21T01:15:45.566Z,18.30
2022-08-21T01:16:51.156Z,18.30
2022-08-21T01:17:54.697Z,18.30
2022-08-21T01:18:56.501Z,18.20
2022-08-21T01:20:05.880Z,18.20
2022-08-21T01:21:17.262Z,18.30
2022-08-21T01:22:21.185Z,18.30
2022-08-21T01:23:23.507Z,18.20
2022-08-21T01:24:25.313Z,18.30
2022-08-21T01:25:27.137Z,18.30
2022-08-21T01:26:34.092Z,18.30
2022-08-21T01:27:36.681Z,18.30
2022-08-21T01:28:44.777Z,18.30
2022-08-21T01:29:54.468Z,18.40
2022-08-21T01:30:56.716Z,18.30
2022-08-21T01:33:08.909Z,18.30
2022-08-21T01:34:11.425Z,18.30
2022-08-21T01:35:15.241Z,18.20
2022-08-21T01:36:17.180Z,18.20
2022-08-21T01:37:20.644Z,18.20
2022-08-21T01:38:22.375Z,18.20
2022-08-21T01:39:24.111Z,18.20
2022-08-21T01:40:26.018Z,18.20
2022-08-21T01:41:27.758Z,18.20
2022-08-21T01:42:29.513Z,18.20
2022-08-21T01:43:32.696Z,18.20
2022-08-21T01:44:42.210Z,18.20
2022-08-21T01:45:44.165Z,18.20
2022-08-21T01:46:46.030Z,18.20
2022-08-21T01:47:47.993Z,18.20
2022-08-21T01:48:50.372Z,18.20
2022-08-21T01:49:52.292Z,18.20
2022-08-21T01:50:56.806Z,18.20
2022-08-21T01:51:59.121Z,18.20
2022-08-21T01:53:00.994Z,18.20
2022-08-21T01:54:03.691Z,18.20
2022-08-21T01:55:07.596Z,18.20
2022-08-21T01:56:13.264Z,18.20
2022-08-21T01:57:15.128Z,18.20
2022-08-21T01:58:17.153Z,18.20
2022-08-21T01:59:19.776Z,18.20
2022-08-21T02:00:26.054Z,18.20
2022-08-21T02:01:28.068Z,18.20
2022-08-21T02:02:29.981Z,18.20
2022-08-21T02:03:35.681Z,18.20
2022-08-21T02:04:38.100Z,18.20
2022-08-21T02:05:39.824Z,18.20
2022-08-21T02:06:41.582Z,18.20
2022-08-21T02:07:50.225Z,18.20
2022-08-21T02:08:52.129Z,18.20
2022-08-21T02:09:54.083Z,18.10
2022-08-21T02:10:57.923Z,18.10
2022-08-21T02:12:00.378Z,18.10
2022-08-21T02:13:02.561Z,18.10
2022-08-21T02:14:04.729Z,18.10
2022-08-21T02:15:08.080Z,18.10
2022-08-21T02:16:09.994Z,18.10
2022-08-21T02:17:11.923Z,18.10
2022-08-21T02:18:14.332Z,18.10
2022-08-21T02:19:17.157Z,18.10
2022-08-21T02:20:36.836Z,18.10
2022-08-21T02:21:39.016Z,18.10
2022-08-21T02:22:40.715Z,18.10
2022-08-21T02:23:42.597Z,18.10
2022-08-21T02:24:54.004Z,18.10
2022-08-21T02:26:02.011Z,18.10
2022-08-21T02:27:03.915Z,18.10
2022-08-21T02:28:10.077Z,18.10
2022-08-21T02:29:12.031Z,18.10
2022-08-21T02:30:17.130Z,18.10
2022-08-21T02:31:18.924Z,18.00
2022-08-21T02:32:22.317Z,18.00
2022-08-21T02:33:24.624Z,18.00
2022-08-21T02:34:29.287Z,18.00
2022-08-21T02:35:31.339Z,18.00
2022-08-21T02:36:33.244Z,18.00
2022-08-21T02:37:35.090Z,18.00
2022-08-21T02:38:39.679Z,18.00
2022-08-21T02:39:41.399Z,18.00
2022-08-21T02:40:47.944Z,18.00
2022-08-21T02:41:50.175Z,18.00
2022-08-21T02:42:51.992Z,18.00
2022-08-21T02:43:54.168Z,18.00
2022-08-21T02:44:55.918Z,18.00
2022-08-21T02:45:58.859Z,18.00
2022-08-21T02:47:00.577Z,18.00
2022-08-21T02:48:07.750Z,18.00
2022-08-21T02:49:09.643Z,18.00
2022-08-21T02:50:11.483Z,18.00
2022-08-21T02:51:18.452Z,18.00
2022-08-21T02:52:20.320Z,18.00
2022-08-21T02:53:22.134Z,17.90
2022-08-21T02:54:23.900Z,17.90
2022-08-21T02:55:30.214Z,17.90
2022-08-21T02:56:31.908Z,18.00
2022-08-21T02:57:33.677Z,17.90
2022-08-21T02:58:39.752Z,17.90
2022-08-21T02:59:41.761Z,17.90
2022-08-21T03:00:44.697Z,17.90
2022-08-21T03:01:46.467Z,17.90
2022-08-21T03:02:49.944Z,17.90
2022-08-21T03:03:52.068Z,18.00
2022-08-21T03:04:53.881Z,18.00
2022-08-21T03:05:56.231Z,17.90
2022-08-21T03:06:57.975Z,18.00
2022-08-21T03:08:01.528Z,18.00
2022-08-21T03:09:04.217Z,18.00
2022-08-21T03:10:07.060Z,18.00
2022-08-21T03:11:10.755Z,18.00
2022-08-21T03:12:12.542Z,18.00
2022-08-21T03:13:14.957Z,18.00
2022-08-21T03:14:17.108Z,18.00
2022-08-21T03:15:21.320Z,18.00
2022-08-21T03:16:23.089Z,18.00
2022-08-21T03:17:29.949Z,18.00
2022-08-21T03:18:31.911Z,18.00
2022-08-21T03:19:33.692Z,18.00
2022-08-21T03:20:37.517Z,18.00
2022-08-21T03:21:39.280Z,18.00
2022-08-21T03:22:41.352Z,18.00
2022-08-21T03:23:47.728Z,18.00
2022-08-21T03:24:49.833Z,18.00
2022-08-21T03:25:52.104Z,18.00
2022-08-21T03:26:57.227Z,18.00
2022-08-21T03:27:59.944Z,18.00
2022-08-21T03:29:01.666Z,18.00
2022-08-21T03:30:06.850Z,18.00
2022-08-21T03:31:09.810Z,18.00
2022-08-21T03:32:11.808Z,18.00
2022-08-21T03:33:15.495Z,18.00
2022-08-21T03:34:17.587Z,18.00
2022-08-21T03:35:20.428Z,18.00
2022-08-21T03:36:22.195Z,18.10
2022-08-21T03:37:25.140Z,18.10
2022-08-21T03:38:28.792Z,18.10
2022-08-21T03:39:30.784Z,18.10
2022-08-21T03:40:32.659Z,18.10
2022-08-21T03:41:34.371Z,18.10
2022-08-21T03:42:36.799Z,18.10
2022-08-21T03:43:39.491Z,18.10
2022-08-21T03:44:41.204Z,18.20
2022-08-21T03:45:42.964Z,18.20
2022-08-21T03:46:44.740Z,18.20
2022-08-21T03:48:01.839Z,18.20
2022-08-21T03:49:03.884Z,18.30
2022-08-21T03:50:06.456Z,18.30
2022-08-21T03:51:08.601Z,18.30
2022-08-21T03:52:10.445Z,18.30
2022-08-21T03:53:16.805Z,18.40
2022-08-21T03:54:19.988Z,18.40
2022-08-21T03:55:22.169Z,18.40
2022-08-21T03:56:24.627Z,18.50
2022-08-21T03:57:26.474Z,18.50
2022-08-21T03:58:29.507Z,18.50
2022-08-21T03:59:31.284Z,18.60
2022-08-21T04:00:33.328Z,18.60
2022-08-21T04:01:35.580Z,18.60
2022-08-21T04:02:37.503Z,18.60
2022-08-21T04:03:39.634Z,18.70
2022-08-21T04:04:41.343Z,18.70
2022-08-21T04:05:44.016Z,18.70
2022-08-21T04:06:45.725Z,18.80
2022-08-21T04:07:47.453Z,18.80
2022-08-21T04:08:49.660Z,18.80
2022-08-21T04:09:51.736Z,18.80
2022-08-21T04:10:56.600Z,18.90
2022-08-21T04:11:59.818Z,18.90
2022-08-21T04:13:02.116Z,18.90
2022-08-21T04:14:04.151Z,18.90
2022-08-21T04:15:06.318Z,19.00
2022-08-21T04:16:08.854Z,19.00
2022-08-21T04:17:10.592Z,19.00
2022-08-21T04:18:12.346Z,19.00
2022-08-21T04:19:14.975Z,19.00
2022-08-21T04:20:18.561Z,19.10
2022-08-21T04:21:20.347Z,19.10
2022-08-21T04:22:26.167Z,19.20
2022-08-21T04:23:28.463Z,19.20
2022-08-21T04:24:30.382Z,19.20
2022-08-21T04:25:32.775Z,19.30
2022-08-21T04:26:35.673Z,19.30
2022-08-21T04:27:37.444Z,19.30
2022-08-21T04:28:39.160Z,19.30
2022-08-21T04:29:40.988Z,19.30
2022-08-21T04:30:42.840Z,19.30
2022-08-21T04:31:44.909Z,19.40
2022-08-21T04:32:49.781Z,19.40
2022-08-21T04:33:52.115Z,19.40
2022-08-21T04:35:02.235Z,19.40
2022-08-21T04:36:04.738Z,19.40
2022-08-21T04:37:06.456Z,19.50
2022-08-21T04:38:08.375Z,19.50
2022-08-21T04:39:10.262Z,19.50
2022-08-21T04:40:14.265Z,19.50
2022-08-21T04:41:16.151Z,19.50
2022-08-21T04:42:22.097Z,19.50
2022-08-21T04:43:24.539Z,19.50
2022-08-21T04:44:26.274Z,19.50
2022-08-21T04:45:34.664Z,19.50
2022-08-21T04:46:36.371Z,19.50
2022-08-21T04:47:41.840Z,19.50
2022-08-21T04:48:55.194Z,19.50
2022-08-21T04:49:57.052Z,19.50
2022-08-21T04:51:04.283Z,19.50
2022-08-21T04:52:06.259Z,19.50
2022-08-21T04:53:14.192Z,19.50
2022-08-21T04:54:21.371Z,19.50
2022-08-21T04:55:25.284Z,19.50
2022-08-21T04:56:32.249Z,19.50
2022-08-21T04:57:39.779Z,19.50
2022-08-21T04:58:53.227Z,19.50
2022-08-21T04:59:55.160Z,19.50
2022-08-21T05:00:59.715Z,19.50
2022-08-21T05:02:02.891Z,19.50
2022-08-21T05:03:07.412Z,19.50
2022-08-21T05:04:13.545Z,19.50
2022-08-21T05:05:16.647Z,19.50
2022-08-21T05:06:18.775Z,19.50
2022-08-21T05:07:41.639Z,19.60
2022-08-21T05:08:47.892Z,19.60
2022-08-21T05:09:50.255Z,19.60
2022-08-21T05:10:54.947Z,19.60
2022-08-21T05:11:59.306Z,19.60
2022-08-21T05:13:01.915Z,19.50
2022-08-21T05:14:04.023Z,19.50
2022-08-21T05:15:06.298Z,19.60
2022-08-21T05:16:09.305Z,19.60
2022-08-21T05:17:11.081Z,19.60
2022-08-21T05:18:13.009Z,19.60
2022-08-21T05:19:15.187Z,19.60
2022-08-21T05:20:16.948Z,19.60
2022-08-21T05:21:18.897Z,19.60
2022-08-21T05:22:22.990Z,19.60
2022-08-21T05:23:26.233Z,19.60
2022-08-21T05:24:28.822Z,19.60
2022-08-21T05:25:30.749Z,19.60
2022-08-21T05:26:32.999Z,19.60
2022-08-21T05:27:34.880Z,19.60
2022-08-21T05:28:36.836Z,19.60
2022-08-21T05:29:39.023Z,19.60
2022-08-21T05:30:41.684Z,19.60
2022-08-21T05:31:44.129Z,19.60
2022-08-21T05:32:45.866Z,19.60
2022-08-21T05:33:47.577Z,19.70
2022-08-21T05:34:49.352Z,19.70
2022-08-21T05:35:53.523Z,19.70
2022-08-21T05:36:55.236Z,19.70
2022-08-21T05:37:57.908Z,19.70
2022-08-21T05:38:59.756Z,19.70
2022-08-21T05:40:05.094Z,19.70
2022-08-21T05:41:23.861Z,19.70
2022-08-21T05:42:25.574Z,19.70
2022-08-21T05:43:27.304Z,19.70
2022-08-21T05:44:29.043Z,19.70
2022-08-21T05:45:42.969Z,19.70
2022-08-21T05:46:45.623Z,19.70
2022-08-21T05:47:47.329Z,19.70
2022-08-21T05:48:49.050Z,19.70
2022-08-21T05:49:50.723Z,19.70
2022-08-21T05:50:53.308Z,19.70
2022-08-21T05:51:55.028Z,19.70
2022-08-21T05:53:04.372Z,19.70
2022-08-21T05:54:09.545Z,19.70
2022-08-21T05:55:11.292Z,19.70
2022-08-21T05:56:14.240Z,19.70
2022-08-21T05:57:16.020Z,19.80
2022-08-21T05:58:20.311Z,19.80
2022-08-21T05:59:22.422Z,19.80
2022-08-21T06:00:24.237Z,19.90
2022-08-21T06:01:26.220Z,19.90
2022-08-21T06:02:28.036Z,19.90
2022-08-21T06:03:36.745Z,20.00
2022-08-21T06:04:41.897Z,20.00
2022-08-21T06:05:43.850Z,20.00
2022-08-21T06:06:45.772Z,20.10
2022-08-21T06:07:47.552Z,20.10
2022-08-21T06:08:49.253Z,20.10
2022-08-21T06:09:50.981Z,20.20
2022-08-21T06:10:54.521Z,20.20
2022-08-21T06:11:56.249Z,20.30
2022-08-21T06:12:58.183Z,20.30
2022-08-21T06:14:00.449Z,20.40
2022-08-21T06:15:02.192Z,20.40
2022-08-21T06:16:05.524Z,20.50
2022-08-21T06:17:09.887Z,20.50
2022-08-21T06:18:12.401Z,20.50
2022-08-21T06:19:14.373Z,20.60
2022-08-21T06:20:16.465Z,20.60
2022-08-21T06:21:18.364Z,20.70
2022-08-21T06:22:20.886Z,20.70
2022-08-21T06:23:22.610Z,20.70
2022-08-21T06:24:34.673Z,20.70
2022-08-21T06:25:36.817Z,20.80
2022-08-21T06:26:38.543Z,20.80
2022-08-21T06:27:40.589Z,20.80
2022-08-21T06:28:43.213Z,20.80
2022-08-21T06:29:46.197Z,20.80
2022-08-21T06:30:48.100Z,20.80
2022-08-21T06:31:52.145Z,20.90
2022-08-21T06:32:54.059Z,20.90
2022-08-21T06:33:56.485Z,20.90
2022-08-21T06:34:58.415Z,20.90
2022-08-21T06:36:00.956Z,21.00
2022-08-21T06:37:02.720Z,21.00
2022-08-21T06:38:04.778Z,21.00
2022-08-21T06:39:16.272Z,21.00
2022-08-21T06:40:18.696Z,21.10
2022-08-21T06:41:24.028Z,21.10
2022-08-21T06:42:31.049Z,21.10
2022-08-21T06:43:39.616Z,21.10
2022-08-21T06:44:41.851Z,21.10
2022-08-21T06:45:44.379Z,21.20
2022-08-21T06:46:46.526Z,21.10
2022-08-21T06:47:49.959Z,21.20
2022-08-21T06:48:51.765Z,21.20
2022-08-21T06:49:53.648Z,21.20
2022-08-21T06:50:56.957Z,21.20
2022-08-21T06:51:58.643Z,21.30
2022-08-21T06:53:14.094Z,21.30
2022-08-21T06:54:15.878Z,21.40
2022-08-21T06:55:21.217Z,21.40
2022-08-21T06:56:24.242Z,21.50
2022-08-21T06:57:26.770Z,21.50
2022-08-21T06:58:28.661Z,21.50
2022-08-21T06:59:30.628Z,21.60
2022-08-21T07:00:33.116Z,21.60
2022-08-21T07:01:34.922Z,21.70
2022-08-21T07:02:36.661Z,21.70
2022-08-21T07:03:44.528Z,21.80
2022-08-21T07:04:46.275Z,21.80
2022-08-21T07:05:48.192Z,21.80
2022-08-21T07:06:50.036Z,21.80
2022-08-21T07:07:51.797Z,21.90
2022-08-21T07:08:53.579Z,21.90
2022-08-21T07:09:57.008Z,22.00
2022-08-21T07:11:02.538Z,22.00
2022-08-21T07:12:04.568Z,22.00
2022-08-21T07:13:06.581Z,22.10
2022-08-21T07:14:08.558Z,22.00
2022-08-21T07:15:11.290Z,22.10
2022-08-21T07:16:13.019Z,22.10
2022-08-21T07:17:14.936Z,22.20
2022-08-21T07:18:16.965Z,22.20
2022-08-21T07:19:19.160Z,22.20
2022-08-21T07:20:20.867Z,22.20
2022-08-21T07:21:25.926Z,22.20
2022-08-21T07:22:28.597Z,22.20
2022-08-21T07:23:34.343Z,22.20
2022-08-21T07:24:36.067Z,22.20
2022-08-21T07:25:37.883Z,22.30
2022-08-21T07:26:39.928Z,22.30
2022-08-21T07:27:41.682Z,22.40
2022-08-21T07:28:43.472Z,22.50
2022-08-21T07:29:45.234Z,22.50
2022-08-21T07:30:47.319Z,22.50
2022-08-21T07:31:49.147Z,22.60
2022-08-21T07:32:53.221Z,22.60
2022-08-21T07:33:55.394Z,22.60
2022-08-21T07:34:57.290Z,22.70
2022-08-21T07:35:59.179Z,22.70
2022-08-21T07:37:06.135Z,22.70
2022-08-21T07:38:11.636Z,22.80
2022-08-21T07:39:13.480Z,22.70
2022-08-21T07:40:16.385Z,22.70
2022-08-21T07:41:24.541Z,22.60
2022-08-21T07:42:26.245Z,22.60
2022-08-21T07:43:30.424Z,22.60
2022-08-21T07:44:32.641Z,22.60
2022-08-21T07:45:34.406Z,22.60
2022-08-21T07:46:36.128Z,22.70
2022-08-21T07:47:42.588Z,22.70
2022-08-21T07:48:44.865Z,22.80
2022-08-21T07:49:47.348Z,22.80
2022-08-21T07:50:50.123Z,22.90
2022-08-21T07:51:51.864Z,22.90
2022-08-21T07:52:53.919Z,23.00
2022-08-21T07:53:57.460Z,23.00
2022-08-21T07:55:02.823Z,23.00
2022-08-21T07:56:11.908Z,23.00
2022-08-21T07:57:14.159Z,23.10
2022-08-21T07:58:17.706Z,23.10
2022-08-21T07:59:19.864Z,23.10
2022-08-21T08:00:25.245Z,23.20
2022-08-21T08:01:27.220Z,23.20
2022-08-21T08:02:31.299Z,23.20
2022-08-21T08:03:33.252Z,23.20
2022-08-21T08:04:34.956Z,23.20
2022-08-21T08:05:38.315Z,23.20
2022-08-21T08:06:40.079Z,23.20
2022-08-21T08:07:42.739Z,23.30
2022-08-21T08:08:44.508Z,23.30
2022-08-21T08:09:47.032Z,23.30
2022-08-21T08:10:50.400Z,23.40
2022-08-21T08:11:52.302Z,23.40
2022-08-21T08:12:55.768Z,23.40
2022-08-21T08:13:59.113Z,23.40
2022-08-21T08:15:01.934Z,23.40
2022-08-21T08:16:04.120Z,23.40
2022-08-21T08:17:05.997Z,23.40
2022-08-21T08:18:07.769Z,23.40
2022-08-21T08:19:09.503Z,23.50
2022-08-21T08:20:17.227Z,23.50
2022-08-21T08:21:21.860Z,23.50
2022-08-21T08:22:27.435Z,23.50
2022-08-21T08:23:29.179Z,23.50
2022-08-21T08:24:31.439Z,23.60
2022-08-21T08:25:36.835Z,23.60
2022-08-21T08:26:38.839Z,23.70
2022-08-21T08:27:41.295Z,23.70
2022-08-21T08:28:43.282Z,23.80
2022-08-21T08:29:45.828Z,23.80
2022-08-21T08:30:47.966Z,23.80
2022-08-21T08:31:49.743Z,23.80
2022-08-21T08:32:53.350Z,23.90
2022-08-21T08:33:55.168Z,23.90
2022-08-21T08:34:56.900Z,23.90
2022-08-21T08:36:01.347Z,23.90
2022-08-21T08:37:09.295Z,23.90
2022-08-21T08:38:11.075Z,23.90
2022-08-21T08:39:14.167Z,23.90
2022-08-21T08:40:36.671Z,24.00
2022-08-21T08:41:42.150Z,24.00
2022-08-21T08:42:44.682Z,24.00
2022-08-21T08:44:00.387Z,24.00
2022-08-21T08:45:13.789Z,24.00
2022-08-21T08:46:19.396Z,24.10
2022-08-21T08:47:21.303Z,24.10
2022-08-21T08:48:32.682Z,24.20
2022-08-21T08:49:56.093Z,24.30
2022-08-21T08:51:02.136Z,24.20
2022-08-21T08:52:22.102Z,24.20
2022-08-21T08:53:49.792Z,24.30
2022-08-21T08:55:03.433Z,24.20
2022-08-21T08:56:06.952Z,24.20
2022-08-21T08:57:14.625Z,24.20
2022-08-21T08:58:27.561Z,24.20
2022-08-21T08:59:43.918Z,24.30
2022-08-21T09:00:49.919Z,24.40
2022-08-21T09:01:52.379Z,24.30
2022-08-21T09:02:57.983Z,24.30
2022-08-21T09:04:00.107Z,24.40
2022-08-21T09:05:02.520Z,24.40
2022-08-21T09:06:07.613Z,24.40
2022-08-21T09:07:20.028Z,24.30
2022-08-21T09:08:33.647Z,24.30
2022-08-21T09:10:02.563Z,24.20
2022-08-21T09:11:09.860Z,24.20
2022-08-21T09:12:19.726Z,24.10
2022-08-21T09:14:01.503Z,24.00
2022-08-21T09:15:24.932Z,24.10
2022-08-21T09:16:41.861Z,24.10
2022-08-21T09:18:12.948Z,24.20
2022-08-21T09:19:35.527Z,24.20
2022-08-21T09:21:10.666Z,24.20
2022-08-21T09:22:43.052Z,24.20
2022-08-21T09:24:11.536Z,24.20
2022-08-21T09:25:25.108Z,24.20
2022-08-21T09:26:37.099Z,24.30
2022-08-21T09:27:39.114Z,24.40
2022-08-21T09:28:44.842Z,24.40
2022-08-21T09:29:51.885Z,24.50
2022-08-21T09:30:57.020Z,24.50
2022-08-21T09:31:58.781Z,24.50
2022-08-21T09:33:01.083Z,24.60
2022-08-21T09:34:10.356Z,24.70
2022-08-21T09:35:17.700Z,24.80
2022-08-21T09:36:40.136Z,24.80
2022-08-21T09:38:03.579Z,24.90
2022-08-21T09:39:06.192Z,24.80
2022-08-21T09:40:21.902Z,24.80
2022-08-21T09:41:30.044Z,24.80
2022-08-21T09:42:33.144Z,24.70
2022-08-21T09:43:35.688Z,24.70
2022-08-21T09:44:44.159Z,24.70
2022-08-21T09:45:47.823Z,24.70
2022-08-21T09:46:53.927Z,24.70
2022-08-21T09:47:55.739Z,24.80
2022-08-21T09:49:00.429Z,24.90
2022-08-21T09:50:19.595Z,25.00
2022-08-21T09:51:32.058Z,25.10
2022-08-21T09:52:33.868Z,25.10
2022-08-21T09:53:36.323Z,25.00
2022-08-21T09:54:40.907Z,25.00
2022-08-21T09:56:21.546Z,25.00
2022-08-21T09:57:50.452Z,25.00
2022-08-21T09:58:53.051Z,25.00
2022-08-21T09:59:56.170Z,25.00
2022-08-21T10:01:00.809Z,25.00
2022-08-21T10:02:20.814Z,25.00
2022-08-21T10:03:25.488Z,24.90
2022-08-21T10:04:34.842Z,25.00
2022-08-21T10:05:37.998Z,25.20
2022-08-21T10:06:40.136Z,25.30
2022-08-21T10:07:42.141Z,25.30
2022-08-21T10:08:44.337Z,25.40
2022-08-21T10:09:46.192Z,25.40
2022-08-21T10:10:56.356Z,25.30
2022-08-21T10:12:18.489Z,25.30
2022-08-21T10:13:43.329Z,25.30
2022-08-21T10:14:51.916Z,25.20
2022-08-21T10:16:20.961Z,25.20
2022-08-21T10:17:50.507Z,25.30
2022-08-21T10:19:13.543Z,25.40
2022-08-21T10:20:22.595Z,25.40
2022-08-21T10:21:59.915Z,25.30
2022-08-21T10:23:32.230Z,25.30
2022-08-21T10:24:50.065Z,25.40
2022-08-21T10:26:20.546Z,25.60
2022-08-21T10:28:13.701Z,25.70
2022-08-21T10:29:45.116Z,25.80
2022-08-21T10:31:27.388Z,25.80
2022-08-21T10:33:11.455Z,25.90
2022-08-21T10:34:35.457Z,25.80
2022-08-21T10:35:58.527Z,25.80
2022-08-21T10:37:10.996Z,26.00
2022-08-21T10:38:52.731Z,26.10
2022-08-21T10:40:20.894Z,26.20
2022-08-21T10:41:47.163Z,26.20
2022-08-21T10:43:26.045Z,26.20
2022-08-21T10:45:12.579Z,26.20
2022-08-21T10:46:42.736Z,26.10
2022-08-21T10:48:01.834Z,26.10
2022-08-21T10:49:13.411Z,26.00
2022-08-21T10:50:49.973Z,25.90
2022-08-21T10:52:09.687Z,25.80
2022-08-21T10:53:46.279Z,25.70
2022-08-21T10:55:03.869Z,25.60
2022-08-21T10:56:25.210Z,25.50
2022-08-21T10:57:53.116Z,25.50
2022-08-21T10:59:39.256Z,25.50
2022-08-21T11:00:46.318Z,25.50
2022-08-21T11:01:55.036Z,25.40
2022-08-21T11:03:14.428Z,25.40
2022-08-21T11:04:21.546Z,25.40
2022-08-21T11:05:38.142Z,25.50
2022-08-21T11:06:47.338Z,25.60
2022-08-21T11:08:04.364Z,25.60
2022-08-21T11:09:16.340Z,25.70
2022-08-21T11:10:32.185Z,25.70
2022-08-21T11:12:11.224Z,25.80
2022-08-21T11:14:00.233Z,25.90
2022-08-21T11:15:07.035Z,25.90
2022-08-21T11:16:33.731Z,25.90
2022-08-21T11:17:44.345Z,25.90
2022-08-21T11:19:01.879Z,25.80
2022-08-21T11:20:13.529Z,25.70
2022-08-21T11:21:49.605Z,25.70
2022-08-21T11:23:03.761Z,25.60
2022-08-21T11:24:33.134Z,25.60
2022-08-21T11:25:45.115Z,25.50
2022-08-21T11:27:00.274Z,25.40
2022-08-21T11:28:18.726Z,25.30
2022-08-21T11:29:30.288Z,25.20
2022-08-21T11:30:42.095Z,25.10
2022-08-21T11:32:20.418Z,25.20
2022-08-21T11:33:45.169Z,25.20
2022-08-21T11:34:58.607Z,25.20
2022-08-21T11:36:09.036Z,25.20
2022-08-21T11:37:25.602Z,25.20
2022-08-21T11:38:48.266Z,25.20
2022-08-21T11:40:31.761Z,25.20
2022-08-21T11:41:42.119Z,25.10
2022-08-21T11:43:01.404Z,25.10
2022-08-21T11:44:28.334Z,25.10
2022-08-21T11:45:40.344Z,25.20
2022-08-21T11:46:49.895Z,25.20
2022-08-21T11:48:17.326Z,25.20
2022-08-21T11:49:52.556Z,25.20
2022-08-21T11:50:56.179Z,25.20
2022-08-21T11:52:11.396Z,25.20
2022-08-21T11:53:34.713Z,25.20
2022-08-21T11:54:47.294Z,25.10
2022-08-21T11:55:59.370Z,25.00
2022-08-21T11:57:14.250Z,25.00
2022-08-21T11:58:27.571Z,25.00
2022-08-21T11:59:46.324Z,25.10
2022-08-21T12:00:53.172Z,25.10
2022-08-21T12:01:55.623Z,25.20
2022-08-21T12:03:07.774Z,25.20
2022-08-21T12:04:23.900Z,25.30
2022-08-21T12:05:37.158Z,25.50
2022-08-21T12:06:42.818Z,25.60
2022-08-21T12:07:46.080Z,25.60
2022-08-21T12:09:04.240Z,25.60
2022-08-21T12:10:10.929Z,25.70
2022-08-21T12:11:18.634Z,25.60
2022-08-21T12:12:29.204Z,25.50
2022-08-21T12:13:42.190Z,25.40
2022-08-21T12:14:48.001Z,25.40
2022-08-21T12:15:50.006Z,25.30
2022-08-21T12:16:52.158Z,25.30
2022-08-21T12:18:00.094Z,25.30
2022-08-21T12:19:21.561Z,25.40
2022-08-21T12:20:50.585Z,25.40
2022-08-21T12:21:55.891Z,25.30
2022-08-21T12:23:12.647Z,25.20
2022-08-21T12:24:15.043Z,25.20
2022-08-21T12:25:22.174Z,25.10
2022-08-21T12:26:26.119Z,25.10
2022-08-21T12:27:45.485Z,25.20
2022-08-21T12:28:47.547Z,25.10
2022-08-21T12:29:52.203Z,25.10
2022-08-21T12:30:58.000Z,25.20
2022-08-21T12:32:02.480Z,25.10
2022-08-21T12:33:18.569Z,25.00
2022-08-21T12:34:23.892Z,25.00
2022-08-21T12:35:40.273Z,24.90
2022-08-21T12:36:50.624Z,24.80
2022-08-21T12:38:07.689Z,24.80
2022-08-21T12:39:16.153Z,24.70
2022-08-21T12:40:18.081Z,24.70
2022-08-21T12:41:23.786Z,24.60
2022-08-21T12:42:56.653Z,24.60
2022-08-21T12:44:08.570Z,24.60
2022-08-21T12:45:42.775Z,24.50
2022-08-21T12:46:58.633Z,24.50
2022-08-21T12:48:19.931Z,24.40
2022-08-21T12:49:55.629Z,24.40
2022-08-21T12:51:10.054Z,24.40
2022-08-21T12:52:25.614Z,24.40
2022-08-21T12:53:41.230Z,24.40
2022-08-21T12:54:44.858Z,24.40
2022-08-21T12:55:46.615Z,24.30
2022-08-21T12:56:57.596Z,24.30
2022-08-21T12:57:59.577Z,24.40
2022-08-21T12:59:06.997Z,24.40
2022-08-21T13:00:14.161Z,24.40
2022-08-21T13:01:35.219Z,24.40
2022-08-21T13:02:44.741Z,24.50
2022-08-21T13:03:47.595Z,24.50
2022-08-21T13:05:05.603Z,24.40
2022-08-21T13:06:08.130Z,24.40
2022-08-21T13:07:19.054Z,24.40
2022-08-21T13:08:21.547Z,24.50
2022-08-21T13:09:30.516Z,24.50
2022-08-21T13:10:34.671Z,24.50
2022-08-21T13:11:36.912Z,24.60
2022-08-21T13:12:43.511Z,24.70
2022-08-21T13:13:51.180Z,25.00
2022-08-21T13:14:58.865Z,25.40
2022-08-21T13:16:05.703Z,26.00
2022-08-21T13:17:08.804Z,26.30
2022-08-21T13:18:21.493Z,26.40
2022-08-21T13:19:26.531Z,26.40
2022-08-21T13:20:41.533Z,26.40
2022-08-21T13:21:44.475Z,26.40
2022-08-21T13:22:46.579Z,26.20
2022-08-21T13:23:49.314Z,26.20
2022-08-21T13:24:51.444Z,26.20
2022-08-21T13:25:53.966Z,26.20
2022-08-21T13:26:56.885Z,26.20
2022-08-21T13:28:08.113Z,26.20
2022-08-21T13:29:13.436Z,26.20
2022-08-21T13:30:21.400Z,26.20
2022-08-21T13:31:29.099Z,26.20
2022-08-21T13:32:33.221Z,26.30
2022-08-21T13:33:37.474Z,26.40
2022-08-21T13:34:39.747Z,26.40
2022-08-21T13:36:05.595Z,26.40
2022-08-21T13:37:12.450Z,26.50
2022-08-21T13:38:15.018Z,26.50
2022-08-21T13:39:19.846Z,26.40
2022-08-21T13:40:33.707Z,26.40
2022-08-21T13:41:38.102Z,26.40
2022-08-21T13:42:45.630Z,26.30
2022-08-21T13:43:56.874Z,26.30
2022-08-21T13:44:58.577Z,26.30
2022-08-21T13:46:01.824Z,26.40
2022-08-21T13:47:05.821Z,26.60
2022-08-21T13:48:07.724Z,27.00
2022-08-21T13:49:11.027Z,27.40
2022-08-21T13:50:16.081Z,27.50
2022-08-21T13:51:17.899Z,27.30
2022-08-21T13:52:21.401Z,27.10
2022-08-21T13:53:34.233Z,27.00
2022-08-21T13:54:40.629Z,26.90
2022-08-21T13:55:44.167Z,26.80
2022-08-21T13:56:47.737Z,26.70
2022-08-21T13:57:59.964Z,26.70
2022-08-21T13:59:04.061Z,26.70
2022-08-21T14:00:20.746Z,26.60
2022-08-21T14:01:30.081Z,26.50
2022-08-21T14:02:41.876Z,26.40
2022-08-21T14:03:49.071Z,26.40
2022-08-21T14:04:53.729Z,26.30
2022-08-21T14:05:55.665Z,26.30
2022-08-21T14:06:57.627Z,26.10
2022-08-21T14:08:30.148Z,26.00
2022-08-21T14:09:36.767Z,26.00
2022-08-21T14:10:45.396Z,25.90
2022-08-21T14:11:47.186Z,25.80
2022-08-21T14:13:07.549Z,25.80
2022-08-21T14:14:27.007Z,25.80
2022-08-21T14:15:32.288Z,25.80
2022-08-21T14:16:47.082Z,25.70
2022-08-21T14:17:49.249Z,25.70
2022-08-21T14:18:55.244Z,25.70
2022-08-21T14:19:56.997Z,25.70
2022-08-21T14:21:07.397Z,25.80
2022-08-21T14:22:30.531Z,25.80
2022-08-21T14:23:32.566Z,25.80
2022-08-21T14:24:40.743Z,25.70